Pagrindinis puslapis
METAR-TAF:

METAR-TAF

Oro uostai :

Ambonas, Indonezija

platuma: 03-42S, ilguma: 128-05E, Aukštis: 12 m

Dabartinis oras

Ataskaita buvo paskelbta 37 minutes, ne 07:00 UTC
Vėjas 6 kt iš Šiaurės
Temperatūra 33°C
Drėgmė 56%
Slėgis 1007 hPa
Matomumas 10 km arba daugiau
Išsisklaidę debesys ne aukštis 1800 ft

METAR: WAPP 230700Z 35006KT 9999 SCT018 33/23 Q1007 NOSIG

Laikas: 16:37 (07:37 UTC)

Prognozė

Ataskaita buvo paskelbta 2 valandos ir 37 minutes, ne 05:00 UTC
Prognozė galioja nuo 23 metu 06 UTC su 24 metu 06 UTC
Vėjas 11 kt iš Šiaurės/Šiaurės Vakarų
Matomumas 10 km arba daugiau
Išsisklaidę debesys ne aukštis 1800 ft

TAF: WAPP 230500Z 2306/2406 34011KT 9999 SCT018

Orai ataskaitas ir orų prognozės (METAR, TAF).

turimą stotys yra geltonos ir raudonos taškus žemėlapyje.

Perkelti pele per norėdami pamatyti stoties vardą.

Tada spustelėkite, norėdami matyti oro stebėjimo ir prognozės.

Norėdami pakeisti žemėlapį: spustelėkite ant žalios mygtukų su juodo kryžiaus žemyn,; žalią mygtuką su brūkšneliu, jei norite nutolinti; arba žalių rodyklių gretimoms žemėlapius.


METAR-TAF: